Time;durP1;ratioP1;P1;durP2;ratioP2;P2;SDS_P1;SDS_P2;PMS_P1;PMS_P2;Temp;Humidity;BMP_temperature;BMP_pressure;BME280_temperature;BME280_humidity;BME280_pressure;Samples;Min_cycle;Max_cycle;Signal;HPM_P1;HPM_P2
2023/05/23 00:01:20;;;;;;;6.88;5.93;;;;;;;19.37;53.48;99737.81;5050482;28;20056;-79
2023/05/23 00:03:48;;;;;;;8.85;6.07;;;;;;;19.30;53.71;99736.72;5050995;28;20059;-80
2023/05/23 00:06:20;;;;;;;11.40;6.20;;;;;;;19.23;54.36;99751.63;5050225;28;20057;-79
2023/05/23 00:08:47;;;;;;;6.72;6.03;;;;;;;19.17;53.79;99744.22;5050487;28;20049;-79
2023/05/23 00:11:13;;;;;;;10.30;5.63;;;;;;;19.11;53.90;99746.44;5050462;28;20049;-79
2023/05/23 00:13:41;;;;;;;7.13;6.38;;;;;;;19.03;53.69;99740.97;5050663;28;20815;-80
2023/05/23 00:16:08;;;;;;;8.43;6.60;;;;;;;18.97;53.83;99741.53;5050175;28;20057;-79
2023/05/23 00:18:41;;;;;;;8.23;6.90;;;;;;;18.90;54.04;99741.25;5050224;28;20528;-80
2023/05/23 00:21:08;;;;;;;9.60;7.10;;;;;;;18.85;54.05;99752.38;5050496;28;20424;-79
2023/05/23 00:23:35;;;;;;;8.02;6.85;;;;;;;18.78;53.74;99751.25;5050476;28;20053;-79
2023/05/23 00:26:02;;;;;;;7.60;6.80;;;;;;;18.71;53.86;99756.31;5050086;28;20057;-80
2023/05/23 00:28:29;;;;;;;9.40;7.18;;;;;;;18.66;53.67;99747.03;5032497;28;20056;-80
2023/05/23 00:30:55;;;;;;;8.90;7.93;;;;;;;18.61;54.18;99745.63;5050565;28;20052;-79
2023/05/23 00:33:22;;;;;;;9.00;7.60;;;;;;;18.57;54.35;99754.03;5050515;28;20092;-80
2023/05/23 00:35:49;;;;;;;9.00;7.50;;;;;;;18.52;54.35;99746.47;5050313;28;20053;-79
2023/05/23 00:38:16;;;;;;;10.60;7.43;;;;;;;18.48;54.46;99747.72;5049859;28;20061;-80
2023/05/23 00:40:43;;;;;;;10.13;7.63;;;;;;;18.45;54.64;99756.84;5049674;28;20383;-80
2023/05/23 00:43:10;;;;;;;7.95;7.15;;;;;;;18.42;54.85;99753.59;5036688;28;20049;-80
2023/05/23 00:45:36;;;;;;;8.80;7.85;;;;;;;18.40;54.75;99760.91;5036352;28;20442;-80
2023/05/23 00:48:05;;;;;;;9.63;7.90;;;;;;;18.38;54.75;99760.22;5054021;28;20060;-79
2023/05/23 00:50:32;;;;;;;11.32;7.57;;;;;;;18.36;54.80;99766.50;5036512;28;20111;-79
2023/05/23 00:53:00;;;;;;;8.32;7.03;;;;;;;18.33;55.01;99763.28;5054046;28;20060;-79
2023/05/23 00:55:28;;;;;;;10.30;8.20;;;;;;;18.30;55.03;99759.06;5036222;28;20061;-80
2023/05/23 00:57:55;;;;;;;10.82;7.97;;;;;;;18.27;54.99;99756.69;5034239;28;20084;-79
2023/05/23 01:00:24;;;;;;;10.05;7.43;;;;;;;18.25;55.57;99757.81;5052869;28;20071;-80
2023/05/23 01:02:52;;;;;;;8.80;6.80;;;;;;;18.22;55.26;99757.09;5052723;28;20081;-80
2023/05/23 01:05:23;;;;;;;8.52;7.18;;;;;;;18.19;55.67;99752.03;5053701;28;20110;-79
2023/05/23 01:07:50;;;;;;;8.35;6.90;;;;;;;18.18;55.68;99758.38;5053614;28;20045;-79
2023/05/23 01:10:27;;;;;;;9.63;7.18;;;;;;;18.13;56.11;99763.22;5053681;28;20103;-79
2023/05/23 01:13:21;;;;;;;8.82;6.97;;;;;;;18.10;56.18;99756.34;5054127;28;20088;-80
2023/05/23 01:15:59;;;;;;;9.02;6.75;;;;;;;18.10;56.27;99759.03;5053404;28;20053;-80
2023/05/23 01:19:07;;;;;;;8.95;6.85;;;;;;;18.08;56.79;99762.81;5053096;28;20053;-80
2023/05/23 01:21:37;;;;;;;7.07;6.07;;;;;;;18.13;55.94;99762.41;5035932;28;20095;-79
2023/05/23 01:24:35;;;;;;;7.72;6.38;;;;;;;18.07;56.50;99764.63;5035979;28;20091;-80
2023/05/23 01:27:10;;;;;;;7.03;6.32;;;;;;;18.12;56.43;99766.06;5027590;28;20132;-79
2023/05/23 01:29:42;;;;;;;11.00;8.57;;;;;;;18.13;56.16;99771.22;5035873;28;20076;-79
2023/05/23 01:32:11;;;;;;;9.98;7.65;;;;;;;18.14;56.43;99772.06;5053147;28;20063;-79
2023/05/23 01:34:39;;;;;;;11.32;7.57;;;;;;;18.14;55.99;99762.28;5053500;28;20057;-80
2023/05/23 01:37:10;;;;;;;9.75;7.70;;;;;;;18.12;57.05;99766.88;5053148;28;20135;-80
2023/05/23 01:39:37;;;;;;;11.73;8.07;;;;;;;18.14;56.22;99780.94;5035688;28;20056;-79
2023/05/23 01:42:05;;;;;;;9.60;7.80;;;;;;;18.13;56.37;99773.06;5035636;28;20061;-79
2023/05/23 01:44:34;;;;;;;13.10;8.57;;;;;;;18.09;56.84;99781.31;5052030;28;20088;-80
2023/05/23 01:47:06;;;;;;;11.57;9.23;;;;;;;18.05;57.45;99773.72;5052572;28;20049;-80
2023/05/23 01:49:35;;;;;;;11.80;8.60;;;;;;;18.02;56.81;99785.47;5053057;28;20482;-79
2023/05/23 01:52:03;;;;;;;12.27;9.45;;;;;;;18.02;56.92;99785.47;5034462;28;20057;-79
2023/05/23 01:54:31;;;;;;;12.68;9.82;;;;;;;18.01;56.97;99780.28;5052262;28;20142;-80
2023/05/23 01:57:00;;;;;;;16.83;10.80;;;;;;;17.98;57.38;99781.38;5052799;28;20091;-80
2023/05/23 01:59:26;;;;;;;16.05;11.43;;;;;;;17.96;57.38;99780.69;5052802;28;20504;-80
2023/05/23 02:01:53;;;;;;;15.38;12.00;;;;;;;17.94;57.23;99783.47;5052701;28;20096;-79
2023/05/23 02:04:20;;;;;;;17.42;11.93;;;;;;;17.94;57.53;99782.66;5053199;28;20048;-80
2023/05/23 02:06:47;;;;;;;16.42;11.85;;;;;;;17.92;57.50;99789.91;5052620;28;20060;-80
2023/05/23 02:09:13;;;;;;;19.77;13.85;;;;;;;17.93;57.84;99783.63;5052583;28;20486;-79
2023/05/23 02:11:40;;;;;;;19.08;13.07;;;;;;;17.92;57.95;99787.25;5052758;28;20057;-79
2023/05/23 02:14:08;;;;;;;18.13;12.90;;;;;;;17.94;58.07;99791.47;5052066;28;20053;-79
2023/05/23 02:16:35;;;;;;;20.10;12.95;;;;;;;17.93;58.16;99789.78;5051795;28;20088;-80
2023/05/23 02:19:02;;;;;;;21.70;14.95;;;;;;;17.94;58.13;99793.31;5074487;23;20073;-78
2023/05/23 02:21:29;;;;;;;21.40;13.75;;;;;;;17.93;58.38;99788.94;5032683;28;20076;-78
2023/05/23 02:23:55;;;;;;;22.77;15.13;;;;;;;17.92;58.55;99793.44;5032301;28;20046;-78
2023/05/23 02:26:22;;;;;;;25.15;14.82;;;;;;;17.90;58.70;99790.06;5031929;28;20041;-77
2023/05/23 02:28:48;;;;;;;21.48;15.13;;;;;;;17.89;58.67;99793.69;5032260;28;20511;-78
2023/05/23 02:31:16;;;;;;;26.67;15.60;;;;;;;17.89;58.83;99800.84;5032557;28;20053;-77
2023/05/23 02:33:42;;;;;;;20.83;13.80;;;;;;;17.88;58.71;99796.50;5032229;28;20104;-78
2023/05/23 02:36:09;;;;;;;22.58;15.10;;;;;;;17.86;58.82;99809.13;5031886;28;20053;-78
2023/05/23 02:38:36;;;;;;;22.95;14.30;;;;;;;17.83;58.81;99800.41;5031805;28;20057;-78
2023/05/23 02:41:03;;;;;;;20.40;12.95;;;;;;;17.81;58.93;99801.50;5032457;28;20051;-79
2023/05/23 02:43:30;;;;;;;17.42;12.30;;;;;;;17.78;59.10;99802.63;5014649;28;20107;-79
2023/05/23 02:45:57;;;;;;;16.77;11.23;;;;;;;17.76;59.02;99804.56;5031575;28;20053;-78
2023/05/23 02:48:23;;;;;;;15.02;11.02;;;;;;;17.71;59.43;99796.13;5031833;28;20447;-79
2023/05/23 02:50:50;;;;;;;16.27;10.98;;;;;;;17.71;59.34;99804.13;5032021;28;20049;-78
2023/05/23 02:53:17;;;;;;;16.35;11.27;;;;;;;17.68;59.25;99802.56;5031724;28;20115;-78
2023/05/23 02:55:43;;;;;;;17.67;11.10;;;;;;;17.65;59.48;99796.69;5031670;28;20469;-77
2023/05/23 02:58:10;;;;;;;18.83;10.63;;;;;;;17.60;59.69;99796.25;5031351;28;20049;-78
2023/05/23 03:00:37;;;;;;;14.27;10.18;;;;;;;17.56;59.63;99804.47;5031685;28;20411;-79
2023/05/23 03:03:04;;;;;;;15.68;9.77;;;;;;;17.54;60.02;99808.25;5031778;28;20132;-78
2023/05/23 03:05:30;;;;;;;13.50;10.00;;;;;;;17.51;59.93;99811.16;5030436;28;20053;-78
2023/05/23 03:07:57;;;;;;;15.52;9.65;;;;;;;17.47;59.90;99807.09;5031498;28;20127;-78
2023/05/23 03:10:23;;;;;;;16.60;10.48;;;;;;;17.44;60.32;99800.22;5031804;28;20076;-78
2023/05/23 03:12:50;;;;;;;13.70;10.10;;;;;;;17.40;60.38;99806.75;5031761;28;20132;-78
2023/05/23 03:15:17;;;;;;;15.68;9.57;;;;;;;17.38;60.59;99812.22;5031127;28;20433;-77
2023/05/23 03:17:43;;;;;;;15.15;9.82;;;;;;;17.36;60.50;99808.84;5031477;28;20049;-77
2023/05/23 03:20:10;;;;;;;13.13;10.05;;;;;;;17.35;60.68;99807.19;5031860;28;20441;-77
2023/05/23 03:22:37;;;;;;;15.05;9.88;;;;;;;17.34;60.64;99805.47;5031620;28;20057;-78
2023/05/23 03:25:04;;;;;;;12.10;9.23;;;;;;;17.34;60.93;99816.09;5013623;28;20121;-78
2023/05/23 03:27:30;;;;;;;12.90;9.60;;;;;;;17.35;60.94;99822.28;5031044;28;20046;-77
2023/05/23 03:29:56;;;;;;;15.00;9.88;;;;;;;17.35;61.13;99814.31;5031534;28;20057;-78
2023/05/23 03:32:23;;;;;;;11.48;9.30;;;;;;;17.34;61.29;99823.25;5031389;28;20077;-78
2023/05/23 03:34:50;;;;;;;14.20;9.52;;;;;;;17.34;61.37;99820.59;5030793;28;20052;-78
2023/05/23 03:37:16;;;;;;;11.75;9.50;;;;;;;17.35;61.51;99816.97;5030637;28;20057;-78
2023/05/23 03:39:43;;;;;;;13.18;9.50;;;;;;;17.33;61.15;99825.06;5030956;28;20137;-78
2023/05/23 03:42:09;;;;;;;11.90;9.10;;;;;;;17.33;61.30;99822.41;5031043;28;20549;-78
2023/05/23 03:44:36;;;;;;;13.93;9.70;;;;;;;17.32;61.56;99824.22;5013490;28;20045;-77
2023/05/23 03:47:02;;;;;;;10.70;8.88;;;;;;;17.33;61.44;99819.75;5030302;28;20053;-78
2023/05/23 03:49:29;;;;;;;12.32;10.10;;;;;;;17.32;61.75;99813.56;5030848;28;20054;-78
2023/05/23 03:51:57;;;;;;;17.98;11.27;;;;;;;17.35;61.72;99816.97;5031064;28;20115;-78
2023/05/23 03:54:23;;;;;;;14.82;10.48;;;;;;;17.35;61.83;99812.50;5031047;28;20102;-78
2023/05/23 03:56:50;;;;;;;14.48;10.52;;;;;;;17.35;61.74;99827.59;5030313;28;20081;-77
2023/05/23 03:59:17;;;;;;;10.90;9.63;;;;;;;17.35;61.95;99835.59;5030870;28;20065;-78
2023/05/23 04:01:43;;;;;;;13.93;10.35;;;;;;;17.36;61.92;99834.59;5030744;28;20678;-77
2023/05/23 04:04:10;;;;;;;15.95;11.35;;;;;;;17.34;62.00;99832.06;5013098;28;20057;-78
2023/05/23 04:06:37;;;;;;;16.13;10.77;;;;;;;17.32;61.90;99834.84;5030274;28;20111;-77
2023/05/23 04:09:05;;;;;;;19.17;10.82;;;;;;;17.31;62.08;99833.16;5030853;28;20050;-78
2023/05/23 04:11:32;;;;;;;16.60;11.68;;;;;;;17.31;62.17;99838.50;5030696;28;20049;-78
2023/05/23 04:13:58;;;;;;;17.73;12.55;;;;;;;17.30;62.08;99841.28;5013166;28;20057;-78
2023/05/23 04:16:25;;;;;;;18.67;13.30;;;;;;;17.30;62.21;99843.94;5029409;28;20081;-78
2023/05/23 04:18:53;;;;;;;15.48;12.25;;;;;;;17.29;62.25;99845.78;5030521;28;20136;-77
2023/05/23 04:21:19;;;;;;;19.02;13.00;;;;;;;17.29;62.15;99860.88;5030657;28;20107;-77
2023/05/23 04:23:46;;;;;;;17.73;11.85;;;;;;;17.29;62.24;99856.41;5030458;28;20516;-77
2023/05/23 04:26:12;;;;;;;18.73;12.93;;;;;;;17.28;62.15;99860.06;5030145;28;20059;-77
2023/05/23 04:28:39;;;;;;;21.27;13.27;;;;;;;17.29;62.01;99864.41;5030465;28;20081;-78
2023/05/23 04:31:06;;;;;;;18.63;12.68;;;;;;;17.30;62.07;99859.91;5030602;28;20437;-77
2023/05/23 04:33:33;;;;;;;20.67;11.88;;;;;;;17.29;61.94;99860.88;5012935;28;20438;-79
2023/05/23 04:36:01;;;;;;;17.58;12.05;;;;;;;17.28;61.85;99864.53;5030379;28;20053;-78
2023/05/23 04:38:27;;;;;;;14.13;10.38;;;;;;;17.27;61.51;99862.84;5030118;28;20057;-78
2023/05/23 04:40:54;;;;;;;12.90;9.52;;;;;;;17.25;61.78;99865.63;5012883;28;20057;-78
2023/05/23 04:43:21;;;;;;;14.68;10.45;;;;;;;17.24;61.77;99884.38;5012828;28;20045;-78
2023/05/23 04:45:48;;;;;;;18.17;11.30;;;;;;;17.22;61.52;99876.50;5012532;28;20528;-78
2023/05/23 04:48:16;;;;;;;14.98;10.18;;;;;;;17.21;61.63;99877.50;5030035;28;20426;-78
2023/05/23 04:50:43;;;;;;;15.73;9.55;;;;;;;17.19;61.71;99887.41;5028070;28;20052;-78
2023/05/23 04:53:10;;;;;;;16.77;9.80;;;;;;;17.16;61.61;99891.16;5030113;28;20061;-78
2023/05/23 04:55:36;;;;;;;12.52;9.05;;;;;;;17.15;61.86;99881.50;5020989;28;20054;-78
2023/05/23 04:58:03;;;;;;;16.70;10.25;;;;;;;17.14;61.92;99889.59;5017461;28;20107;-78
2023/05/23 05:00:30;;;;;;;19.92;10.48;;;;;;;17.13;61.98;99890.59;5025571;28;20046;-78
2023/05/23 05:02:56;;;;;;;17.77;9.77;;;;;;;17.12;61.96;99897.72;5030084;28;20165;-77
2023/05/23 05:05:23;;;;;;;17.42;9.80;;;;;;;17.12;61.50;99888.91;5030034;28;20124;-78
2023/05/23 05:07:49;;;;;;;15.48;9.48;;;;;;;17.08;61.90;99911.41;5012426;28;20144;-77
2023/05/23 05:10:16;;;;;;;18.20;10.23;;;;;;;17.03;61.74;99906.41;5030139;28;20164;-77
2023/05/23 05:12:45;;;;;;;21.20;10.57;;;;;;;17.00;61.73;99914.63;5029874;28;20050;-78
2023/05/23 05:15:12;;;;;;;22.88;9.93;;;;;;;16.97;61.75;99920.22;5028607;28;20057;-77
2023/05/23 05:17:39;;;;;;;15.88;9.10;;;;;;;16.91;61.75;99924.22;5029998;28;20049;-77
2023/05/23 05:20:07;;;;;;;17.95;8.75;;;;;;;16.86;61.92;99935.22;5029974;28;20103;-78
2023/05/23 05:22:41;;;;;;;17.20;8.43;;;;;;;16.82;62.49;99935.59;5029676;28;20053;-78
2023/05/23 05:25:09;;;;;;;15.60;8.02;;;;;;;16.78;61.99;99933.19;5012165;28;20085;-78
2023/05/23 05:27:36;;;;;;;16.23;8.75;;;;;;;16.74;62.01;99931.75;5031220;28;20054;-78
2023/05/23 05:30:07;;;;;;;19.45;10.00;;;;;;;16.71;62.46;99933.81;5033418;28;20049;-77
2023/05/23 05:32:34;;;;;;;17.83;9.40;;;;;;;16.70;61.93;99932.13;5015149;28;20537;-78
2023/05/23 05:35:02;;;;;;;16.33;8.57;;;;;;;16.68;62.09;99948.19;5031762;28;20057;-78
2023/05/23 05:37:29;;;;;;;13.45;7.50;;;;;;;16.66;61.93;99955.44;5032588;28;20045;-78
2023/05/23 05:39:55;;;;;;;10.20;6.35;;;;;;;16.62;61.68;99959.28;5033310;28;20469;-79
2023/05/23 05:42:22;;;;;;;9.77;6.00;;;;;;;16.58;61.71;99958.72;5033234;28;20150;-78
2023/05/23 05:44:49;;;;;;;10.45;5.55;;;;;;;16.51;61.84;99958.34;5014759;28;20611;-78
2023/05/23 05:47:16;;;;;;;10.20;5.72;;;;;;;16.48;61.84;99955.94;5032835;28;20072;-78
2023/05/23 05:49:42;;;;;;;9.55;4.95;;;;;;;16.45;62.27;99950.00;5033292;28;20056;-78
2023/05/23 05:52:09;;;;;;;8.00;4.47;;;;;;;16.41;62.23;99952.91;5032600;28;20057;-78
2023/05/23 05:54:36;;;;;;;6.28;4.28;;;;;;;16.39;62.24;99954.00;5015670;28;20055;-78
2023/05/23 05:57:03;;;;;;;6.63;3.38;;;;;;;16.37;61.98;99961.25;5032920;28;20123;-79
2023/05/23 05:59:30;;;;;;;7.07;3.85;;;;;;;16.34;62.18;99962.31;5033307;28;20060;-78
2023/05/23 06:01:58;;;;;;;7.20;3.00;;;;;;;16.35;61.91;99985.28;5033156;28;20053;-78
2023/05/23 06:04:25;;;;;;;4.10;2.80;;;;;;;16.33;61.96;99976.56;5032690;28;20061;-79
2023/05/23 06:06:51;;;;;;;6.47;3.20;;;;;;;16.31;62.20;99975.84;5014909;28;20049;-78
2023/05/23 06:09:18;;;;;;;3.88;2.60;;;;;;;16.31;62.08;99985.63;5033121;28;20084;-77
2023/05/23 06:11:44;;;;;;;5.07;2.50;;;;;;;16.31;61.94;99982.97;5032886;28;20045;-79
2023/05/23 06:14:11;;;;;;;3.42;2.40;;;;;;;16.30;61.93;99990.09;5032759;28;20132;-78
2023/05/23 06:16:38;;;;;;;3.75;2.55;;;;;;;16.30;61.84;99989.25;5032523;28;20134;-78
2023/05/23 06:19:05;;;;;;;3.80;2.42;;;;;;;16.28;61.81;99984.91;5032624;28;20060;-77
2023/05/23 06:21:32;;;;;;;2.95;1.90;;;;;;;16.27;61.92;99991.16;5032584;28;20054;-77
2023/05/23 06:23:58;;;;;;;2.80;1.63;;;;;;;16.25;61.93;100001.06;5032395;28;20049;-78
2023/05/23 06:26:25;;;;;;;2.65;2.00;;;;;;;16.23;61.83;100003.00;5032158;28;20049;-79
2023/05/23 06:28:52;;;;;;;3.50;2.10;;;;;;;16.20;62.05;100010.34;5032038;28;20053;-78
2023/05/23 06:31:18;;;;;;;2.85;1.98;;;;;;;16.18;62.08;100007.81;5032470;28;20060;-78
2023/05/23 06:33:45;;;;;;;2.65;1.60;;;;;;;16.15;62.31;100010.72;5032027;28;20054;-79
2023/05/23 06:36:12;;;;;;;4.03;2.05;;;;;;;16.14;62.32;100016.97;5032074;28;20054;-78
2023/05/23 06:38:38;;;;;;;3.28;2.17;;;;;;;16.13;62.41;100013.50;5031508;28;20095;-78
2023/05/23 06:41:05;;;;;;;4.05;2.15;;;;;;;16.12;62.32;100021.56;5032637;28;20053;-78
2023/05/23 06:43:32;;;;;;;2.85;2.08;;;;;;;16.11;62.51;100026.03;5032094;28;20053;-79
2023/05/23 06:45:59;;;;;;;5.25;2.40;;;;;;;16.10;62.52;100034.97;5031746;28;20482;-78
2023/05/23 06:48:26;;;;;;;4.15;2.25;;;;;;;16.10;62.48;100018.19;5031757;28;20045;-78
2023/05/23 06:50:52;;;;;;;2.78;2.20;;;;;;;16.08;62.53;100023.63;5032212;28;20140;-77
2023/05/23 06:53:19;;;;;;;2.83;2.15;;;;;;;16.07;62.44;100031.72;5032049;28;20099;-78
2023/05/23 06:55:46;;;;;;;3.70;2.40;;;;;;;16.05;62.55;100039.78;5013978;28;20093;-77
2023/05/23 06:58:13;;;;;;;3.45;1.92;;;;;;;16.03;62.47;100028.41;5031863;28;20077;-78
2023/05/23 07:00:40;;;;;;;3.90;2.17;;;;;;;16.01;62.72;100033.00;5031764;28;20057;-79
2023/05/23 07:03:07;;;;;;;4.50;2.10;;;;;;;15.99;62.82;100037.56;5031578;28;20418;-77
2023/05/23 07:05:35;;;;;;;3.47;2.20;;;;;;;15.98;62.69;100046.50;5031391;28;20053;-78
2023/05/23 07:08:06;;;;;;;4.75;2.17;;;;;;;15.96;62.63;100041.31;5031667;28;20077;-79
2023/05/23 07:10:34;;;;;;;5.72;2.90;;;;;;;15.94;62.74;100048.56;5031913;28;20049;-78
2023/05/23 07:13:00;;;;;;;4.97;3.30;;;;;;;15.92;62.78;100054.91;5014039;28;20084;-79
2023/05/23 07:15:27;;;;;;;4.68;3.17;;;;;;;15.89;62.94;100046.22;5031347;28;20049;-78
2023/05/23 07:17:54;;;;;;;10.13;4.00;;;;;;;15.88;63.00;100057.78;5031334;28;20060;-79
2023/05/23 07:20:21;;;;;;;7.72;3.80;;;;;;;15.88;63.05;100064.91;5031638;28;20080;-78
2023/05/23 07:22:49;;;;;;;8.57;3.70;;;;;;;15.87;63.10;100065.88;5014100;28;20448;-78
2023/05/23 07:25:16;;;;;;;11.80;3.47;;;;;;;15.86;63.22;100062.34;5031191;28;20049;-78
2023/05/23 07:27:43;;;;;;;9.23;4.40;;;;;;;15.85;62.84;100065.97;5031051;28;20375;-77
2023/05/23 07:30:09;;;;;;;8.90;3.63;;;;;;;15.83;62.83;100064.41;5031242;28;20049;-78
2023/05/23 07:32:36;;;;;;;7.45;3.88;;;;;;;15.81;62.79;100074.31;5013910;28;20617;-78
2023/05/23 07:35:04;;;;;;;9.95;3.90;;;;;;;15.79;62.80;100078.84;5031163;28;20057;-79
2023/05/23 07:37:30;;;;;;;7.07;3.30;;;;;;;15.73;62.70;100075.69;5031059;28;20060;-78
2023/05/23 07:39:57;;;;;;;10.35;3.53;;;;;;;15.71;63.04;100080.28;5013600;28;20099;-78
2023/05/23 07:42:23;;;;;;;10.18;3.38;;;;;;;15.70;63.13;100089.19;5031077;28;20510;-78
2023/05/23 07:44:50;;;;;;;8.18;3.28;;;;;;;15.68;63.20;100092.91;5030829;28;20485;-78
2023/05/23 07:47:16;;;;;;;8.45;3.25;;;;;;;15.67;63.18;100102.72;5030823;28;20057;-78
2023/05/23 07:49:43;;;;;;;7.43;3.00;;;;;;;15.66;63.19;100094.84;5030923;28;20144;-78
2023/05/23 07:52:10;;;;;;;5.97;2.63;;;;;;;15.63;63.04;100096.75;5030838;28;20057;-77
2023/05/23 07:54:36;;;;;;;8.57;2.85;;;;;;;15.61;63.11;100100.47;5030923;28;20490;-79
2023/05/23 07:57:03;;;;;;;6.32;2.83;;;;;;;15.58;63.17;100106.88;5030387;28;20050;-78
2023/05/23 07:59:30;;;;;;;6.28;2.88;;;;;;;15.55;63.20;100109.72;5013422;28;20112;-78
2023/05/23 08:01:57;;;;;;;9.45;3.30;;;;;;;15.55;63.22;100108.91;5031150;28;20653;-78
2023/05/23 08:04:23;;;;;;;6.97;2.78;;;;;;;15.54;63.38;100108.03;5030731;28;20081;-78
2023/05/23 08:06:50;;;;;;;8.38;3.00;;;;;;;15.54;63.19;100121.31;5030301;28;20111;-78
2023/05/23 08:09:30;;;;;;;7.25;2.90;;;;;;;15.53;63.04;100124.06;5015058;28;20575;-79
2023/05/23 08:11:57;;;;;;;7.57;3.38;;;;;;;15.50;63.06;100123.34;5030656;28;20398;-78
2023/05/23 08:14:24;;;;;;;5.45;3.45;;;;;;;15.47;63.11;100123.56;5030838;28;20046;-78
2023/05/23 08:17:04;;;;;;;9.40;3.78;;;;;;;15.44;63.03;100134.38;5030311;28;20504;-78
2023/05/23 14:21:44;;;;;;;6.80;2.13;;;;;;;28.48;33.60;100329.84;5045481;23;20143;-81
2023/05/23 14:24:11;;;;;;;7.53;2.00;;;;;;;28.68;33.20;100332.75;5032717;28;20084;-81
2023/05/23 14:26:38;;;;;;;5.40;2.28;;;;;;;28.87;31.48;100330.41;5032407;28;20116;-80
2023/05/23 14:29:05;;;;;;;4.70;2.10;;;;;;;28.95;30.34;100335.72;5032406;28;20050;-80
2023/05/23 14:31:31;;;;;;;8.02;2.72;;;;;;;28.88;29.26;100335.66;5032607;28;20056;-80
2023/05/23 14:33:58;;;;;;;6.03;2.08;;;;;;;28.64;29.29;100331.47;5032367;28;20053;-81
2023/05/23 14:36:27;;;;;;;9.35;3.00;;;;;;;28.26;29.41;100340.66;5032300;28;20075;-80
2023/05/23 14:38:53;;;;;;;9.98;2.53;;;;;;;27.90;29.94;100334.13;5032374;28;20111;-80
2023/05/23 14:41:21;;;;;;;6.93;2.20;;;;;;;27.66;30.51;100344.19;5032453;28;20084;-81
2023/05/23 14:43:48;;;;;;;6.38;2.53;;;;;;;27.56;30.67;100343.63;5032378;28;20049;-81
2023/05/23 14:46:16;;;;;;;7.22;2.60;;;;;;;27.53;30.10;100343.97;5032005;28;20050;-79
2023/05/23 14:48:43;;;;;;;7.72;2.45;;;;;;;27.51;30.93;100346.88;5032266;28;20061;-81
2023/05/23 14:51:09;;;;;;;7.38;2.42;;;;;;;27.38;30.05;100342.13;5014691;28;20103;-79
2023/05/23 14:53:46;;;;;;;9.48;2.92;;;;;;;27.22;30.38;100342.25;5032143;28;20057;-79
2023/05/23 14:56:12;;;;;;;4.90;1.95;;;;;;;27.10;30.71;100348.09;5032002;28;20088;-80
2023/05/23 14:58:44;;;;;;;10.85;2.60;;;;;;;27.03;30.72;100350.69;5031806;28;20053;-79
2023/05/23 15:01:12;;;;;;;6.80;2.15;;;;;;;27.02;30.35;100346.31;5031643;28;20049;-79
2023/05/23 15:03:38;;;;;;;6.70;2.20;;;;;;;27.06;30.06;100341.41;5032069;28;20053;-80
2023/05/23 15:06:06;;;;;;;8.75;2.25;;;;;;;27.16;30.60;100344.69;5031932;28;20053;-80
2023/05/23 15:08:33;;;;;;;7.82;2.40;;;;;;;27.33;30.27;100339.13;5031608;28;20045;-79
2023/05/23 15:10:59;;;;;;;9.10;2.55;;;;;;;27.56;29.96;100335.50;5013945;28;20537;-80
2023/05/23 15:13:26;;;;;;;7.82;2.10;;;;;;;27.79;29.45;100342.72;5031503;28;20119;-80
2023/05/23 15:15:53;;;;;;;7.15;1.98;;;;;;;27.97;28.79;100345.03;5029807;28;20057;-80
2023/05/23 15:18:19;;;;;;;6.15;2.22;;;;;;;28.02;28.71;100342.59;5013408;28;20045;-81
2023/05/23 15:21:05;;;;;;;7.68;2.50;;;;;;;28.00;28.63;100347.38;5033290;28;20103;-79
2023/05/23 15:23:32;;;;;;;8.93;2.35;;;;;;;27.89;28.54;100340.59;5031040;28;20053;-79
2023/05/23 15:25:59;;;;;;;8.55;2.47;;;;;;;27.73;28.69;100343.47;5031006;28;20469;-80
2023/05/23 15:28:26;;;;;;;8.90;2.55;;;;;;;27.55;28.74;100341.94;5030935;28;20132;-79
2023/05/23 15:30:53;;;;;;;5.97;2.28;;;;;;;27.36;28.96;100344.16;5031133;28;20136;-81
2023/05/23 15:33:20;;;;;;;5.80;2.45;;;;;;;27.14;28.47;100354.00;5031364;28;20054;-79
2023/05/23 15:35:47;;;;;;;7.47;2.42;;;;;;;26.86;28.20;100355.38;5031196;28;20501;-79
2023/05/23 15:38:13;;;;;;;9.82;2.50;;;;;;;26.63;29.48;100340.00;5031016;28;20057;-80
2023/05/23 15:40:47;;;;;;;6.32;2.55;;;;;;;26.52;29.65;100348.50;5031734;28;20061;-79
2023/05/23 15:43:14;;;;;;;11.48;2.42;;;;;;;26.54;30.13;100355.41;5031285;28;20144;-80
2023/05/23 15:45:41;;;;;;;10.85;2.80;;;;;;;26.65;29.92;100348.75;5031140;28;20057;-80
2023/05/23 15:48:08;;;;;;;7.55;2.25;;;;;;;26.85;29.63;100351.00;5030683;28;20076;-81
2023/05/23 15:50:34;;;;;;;8.63;2.45;;;;;;;27.05;29.06;100351.38;5031024;28;20041;-81
2023/05/23 15:53:01;;;;;;;5.13;1.85;;;;;;;27.25;29.09;100366.22;5029696;28;20045;-80
2023/05/23 15:55:27;;;;;;;7.80;2.22;;;;;;;27.39;28.85;100346.50;5030944;28;20049;-80
2023/05/23 15:57:54;;;;;;;5.03;2.20;;;;;;;27.52;28.82;100355.81;5030901;28;20119;-80
2023/05/23 16:00:21;;;;;;;6.88;2.33;;;;;;;27.63;28.49;100354.56;5030550;28;20505;-80
2023/05/23 16:02:47;;;;;;;7.32;2.20;;;;;;;27.72;28.71;100358.84;5030888;28;20080;-80
2023/05/23 16:05:14;;;;;;;4.53;1.70;;;;;;;27.80;28.74;100349.78;5029418;28;20053;-80
2023/05/23 16:07:41;;;;;;;7.13;2.42;;;;;;;27.84;28.29;100362.78;5030472;28;20053;-82
2023/05/23 16:10:08;;;;;;;9.82;2.45;;;;;;;27.86;27.81;100359.88;5030562;28;20532;-80
2023/05/23 16:12:34;;;;;;;7.60;2.65;;;;;;;27.87;27.98;100356.16;5029778;28;20049;-79
2023/05/23 16:15:01;;;;;;;4.90;1.83;;;;;;;27.85;27.48;100358.22;5030489;28;20072;-84
2023/05/23 16:17:28;;;;;;;6.88;2.05;;;;;;;27.67;26.89;100362.13;5030518;28;20516;-80
2023/05/23 16:19:54;;;;;;;4.25;1.92;;;;;;;27.35;26.98;100364.09;5030273;28;20042;-81
2023/05/23 16:22:22;;;;;;;7.78;2.42;;;;;;;26.92;27.77;100365.44;5030465;28;20096;-80
2023/05/23 16:24:48;;;;;;;8.93;2.65;;;;;;;26.44;27.47;100360.19;5030441;28;20079;-79
2023/05/23 16:27:15;;;;;;;11.27;2.42;;;;;;;25.94;28.18;100359.56;5030692;28;20045;-78
2023/05/23 16:29:42;;;;;;;9.68;3.00;;;;;;;25.46;28.17;100358.44;5030241;28;20107;-80
2023/05/23 16:32:08;;;;;;;8.02;2.42;;;;;;;25.05;29.01;100353.13;5012873;28;20053;-78
2023/05/23 16:34:35;;;;;;;6.28;2.42;;;;;;;24.70;28.98;100354.06;5030292;28;20045;-79
2023/05/23 16:37:02;;;;;;;6.45;2.35;;;;;;;24.36;29.08;100363.06;5030389;28;20057;-80
2023/05/23 16:39:28;;;;;;;8.70;2.17;;;;;;;24.06;29.81;100355.38;5012118;28;20054;-79
2023/05/23 16:41:55;;;;;;;8.07;2.53;;;;;;;23.79;29.85;100353.72;5029986;28;20060;-79
2023/05/23 16:44:25;;;;;;;8.18;2.38;;;;;;;23.52;30.39;100356.41;5030548;28;20429;-79
2023/05/23 16:46:52;;;;;;;9.50;2.55;;;;;;;23.29;30.79;100354.22;5030168;28;20245;-80
2023/05/23 16:49:19;;;;;;;9.55;2.63;;;;;;;23.05;30.39;100357.56;5029934;28;20049;-79
2023/05/23 16:51:45;;;;;;;8.38;2.20;;;;;;;22.79;30.24;100355.63;5030457;28;20492;-79
2023/05/23 16:54:14;;;;;;;9.90;2.55;;;;;;;22.51;30.72;100361.03;5030370;28;20137;-79
2023/05/23 16:56:41;;;;;;;6.35;2.10;;;;;;;22.22;30.89;100362.91;5029990;28;20501;-81
2023/05/23 16:59:08;;;;;;;8.40;2.50;;;;;;;21.97;31.65;100361.72;5030092;28;20049;-80
2023/05/23 17:01:35;;;;;;;9.38;2.15;;;;;;;21.74;31.69;100360.28;5012449;28;20053;-79
2023/05/23 17:04:03;;;;;;;7.30;2.10;;;;;;;21.55;31.85;100360.28;5030683;28;20057;-81
2023/05/23 17:06:30;;;;;;;8.30;2.30;;;;;;;21.37;31.78;100344.13;5030306;28;20041;-80
2023/05/23 17:08:56;;;;;;;11.23;2.78;;;;;;;21.21;32.33;100354.44;5030182;28;20461;-79
2023/05/23 17:11:24;;;;;;;7.65;2.28;;;;;;;21.07;32.12;100361.06;5029771;28;20777;-80
2023/05/23 17:13:51;;;;;;;9.07;2.88;;;;;;;20.92;32.58;100359.78;5030009;28;20055;-79
2023/05/23 17:16:18;;;;;;;9.00;2.30;;;;;;;20.78;32.80;100356.50;5029887;28;20061;-78
2023/05/23 17:18:46;;;;;;;11.27;2.45;;;;;;;20.64;32.91;100355.06;5029849;28;20056;-80
2023/05/23 17:21:13;;;;;;;7.72;2.30;;;;;;;20.50;32.99;100361.69;5029625;28;20046;-78
2023/05/23 17:23:39;;;;;;;6.40;1.80;;;;;;;20.37;33.18;100361.09;5014223;28;20056;-79
2023/05/23 17:26:06;;;;;;;7.63;2.10;;;;;;;20.23;33.52;100371.19;5016248;28;20568;-79
2023/05/23 17:28:32;;;;;;;7.03;2.20;;;;;;;20.12;33.48;100368.59;5033558;28;20054;-79